sensor_id;sensor_type;location;lat;lon;timestamp;P1;durP1;ratioP1;P2;durP2;ratioP2
52188;SDS011;38162;45.926;13.608;2022-08-30T00:00:12;6.40;;;2.33;;
52188;SDS011;38162;45.926;13.608;2022-08-30T00:02:59;8.07;;;2.22;;
52188;SDS011;38162;45.926;13.608;2022-08-30T00:05:26;6.20;;;2.30;;
52188;SDS011;38162;45.926;13.608;2022-08-30T00:07:52;6.20;;;2.45;;
52188;SDS011;38162;45.926;13.608;2022-08-30T00:10:18;10.18;;;2.67;;
52188;SDS011;38162;45.926;13.608;2022-08-30T00:12:44;6.85;;;2.38;;
52188;SDS011;38162;45.926;13.608;2022-08-30T00:15:11;6.43;;;2.38;;
52188;SDS011;38162;45.926;13.608;2022-08-30T00:17:37;4.97;;;2.50;;
52188;SDS011;38162;45.926;13.608;2022-08-30T00:20:04;10.35;;;2.60;;
52188;SDS011;38162;45.926;13.608;2022-08-30T00:22:32;4.72;;;2.40;;
52188;SDS011;38162;45.926;13.608;2022-08-30T00:24:58;4.18;;;2.40;;
52188;SDS011;38162;45.926;13.608;2022-08-30T00:27:25;7.55;;;3.10;;
52188;SDS011;38162;45.926;13.608;2022-08-30T00:29:52;4.93;;;2.75;;
52188;SDS011;38162;45.926;13.608;2022-08-30T00:32:18;7.63;;;2.58;;
52188;SDS011;38162;45.926;13.608;2022-08-30T00:34:45;10.52;;;2.63;;
52188;SDS011;38162;45.926;13.608;2022-08-30T00:37:12;7.05;;;2.70;;
52188;SDS011;38162;45.926;13.608;2022-08-30T00:39:38;6.93;;;2.55;;
52188;SDS011;38162;45.926;13.608;2022-08-30T00:42:05;6.97;;;2.30;;
52188;SDS011;38162;45.926;13.608;2022-08-30T00:44:32;4.18;;;2.20;;
52188;SDS011;38162;45.926;13.608;2022-08-30T00:46:57;5.20;;;2.45;;
52188;SDS011;38162;45.926;13.608;2022-08-30T00:49:23;7.45;;;2.70;;
52188;SDS011;38162;45.926;13.608;2022-08-30T00:51:49;8.02;;;2.20;;
52188;SDS011;38162;45.926;13.608;2022-08-30T00:54:16;12.45;;;2.50;;
52188;SDS011;38162;45.926;13.608;2022-08-30T00:56:43;7.28;;;2.30;;
52188;SDS011;38162;45.926;13.608;2022-08-30T00:59:09;5.30;;;2.17;;
52188;SDS011;38162;45.926;13.608;2022-08-30T01:01:35;6.82;;;2.40;;
52188;SDS011;38162;45.926;13.608;2022-08-30T01:04:01;6.97;;;2.25;;
52188;SDS011;38162;45.926;13.608;2022-08-30T01:06:28;3.38;;;2.20;;
52188;SDS011;38162;45.926;13.608;2022-08-30T01:08:54;9.65;;;2.45;;
52188;SDS011;38162;45.926;13.608;2022-08-30T01:11:21;6.10;;;2.10;;
52188;SDS011;38162;45.926;13.608;2022-08-30T01:13:49;7.82;;;2.22;;
52188;SDS011;38162;45.926;13.608;2022-08-30T01:16:17;6.82;;;2.20;;
52188;SDS011;38162;45.926;13.608;2022-08-30T01:18:44;4.75;;;1.95;;
52188;SDS011;38162;45.926;13.608;2022-08-30T01:21:16;7.38;;;2.42;;
52188;SDS011;38162;45.926;13.608;2022-08-30T01:23:58;4.78;;;1.92;;
52188;SDS011;38162;45.926;13.608;2022-08-30T01:26:26;5.30;;;2.45;;
52188;SDS011;38162;45.926;13.608;2022-08-30T01:28:54;6.05;;;1.95;;
52188;SDS011;38162;45.926;13.608;2022-08-30T01:31:24;6.03;;;2.45;;
52188;SDS011;38162;45.926;13.608;2022-08-30T01:33:50;7.60;;;2.15;;
52188;SDS011;38162;45.926;13.608;2022-08-30T01:36:15;7.18;;;1.98;;
52188;SDS011;38162;45.926;13.608;2022-08-30T01:38:47;8.25;;;2.00;;
52188;SDS011;38162;45.926;13.608;2022-08-30T01:43:44;7.95;;;2.47;;
52188;SDS011;38162;45.926;13.608;2022-08-30T01:46:11;5.78;;;2.22;;
52188;SDS011;38162;45.926;13.608;2022-08-30T01:48:39;9.95;;;2.30;;
52188;SDS011;38162;45.926;13.608;2022-08-30T01:51:08;7.43;;;2.50;;
52188;SDS011;38162;45.926;13.608;2022-08-30T01:53:35;2.42;;;2.10;;
52188;SDS011;38162;45.926;13.608;2022-08-30T01:56:02;6.63;;;2.53;;
52188;SDS011;38162;45.926;13.608;2022-08-30T01:58:29;8.38;;;2.17;;
52188;SDS011;38162;45.926;13.608;2022-08-30T02:00:55;3.85;;;2.10;;
52188;SDS011;38162;45.926;13.608;2022-08-30T02:03:21;7.00;;;2.50;;
52188;SDS011;38162;45.926;13.608;2022-08-30T02:05:47;8.10;;;2.30;;
52188;SDS011;38162;45.926;13.608;2022-08-30T02:08:13;6.28;;;2.20;;
52188;SDS011;38162;45.926;13.608;2022-08-30T02:10:39;8.10;;;2.42;;
52188;SDS011;38162;45.926;13.608;2022-08-30T02:13:04;3.42;;;2.10;;
52188;SDS011;38162;45.926;13.608;2022-08-30T02:15:30;4.93;;;2.53;;
52188;SDS011;38162;45.926;13.608;2022-08-30T02:17:56;4.65;;;2.22;;
52188;SDS011;38162;45.926;13.608;2022-08-30T02:20:22;5.20;;;2.42;;
52188;SDS011;38162;45.926;13.608;2022-08-30T02:22:47;6.18;;;2.30;;
52188;SDS011;38162;45.926;13.608;2022-08-30T02:25:13;5.55;;;2.33;;
52188;SDS011;38162;45.926;13.608;2022-08-30T02:27:39;2.78;;;2.10;;
52188;SDS011;38162;45.926;13.608;2022-08-30T02:30:06;4.35;;;2.28;;
52188;SDS011;38162;45.926;13.608;2022-08-30T02:32:32;3.95;;;1.90;;
52188;SDS011;38162;45.926;13.608;2022-08-30T02:34:58;5.32;;;2.78;;
52188;SDS011;38162;45.926;13.608;2022-08-30T02:37:24;3.58;;;2.25;;
52188;SDS011;38162;45.926;13.608;2022-08-30T02:39:50;9.65;;;2.33;;
52188;SDS011;38162;45.926;13.608;2022-08-30T02:42:15;4.85;;;2.17;;
52188;SDS011;38162;45.926;13.608;2022-08-30T02:44:41;7.20;;;2.65;;
52188;SDS011;38162;45.926;13.608;2022-08-30T02:47:07;7.03;;;2.90;;
52188;SDS011;38162;45.926;13.608;2022-08-30T02:49:32;5.00;;;2.35;;
52188;SDS011;38162;45.926;13.608;2022-08-30T02:51:58;3.55;;;2.55;;
52188;SDS011;38162;45.926;13.608;2022-08-30T02:54:24;3.50;;;2.20;;
52188;SDS011;38162;45.926;13.608;2022-08-30T02:56:50;3.45;;;2.20;;
52188;SDS011;38162;45.926;13.608;2022-08-30T02:59:16;8.60;;;2.63;;
52188;SDS011;38162;45.926;13.608;2022-08-30T03:01:42;3.85;;;2.22;;
52188;SDS011;38162;45.926;13.608;2022-08-30T03:04:08;10.45;;;2.92;;
52188;SDS011;38162;45.926;13.608;2022-08-30T03:06:35;5.55;;;2.45;;
52188;SDS011;38162;45.926;13.608;2022-08-30T03:09:01;5.20;;;2.58;;
52188;SDS011;38162;45.926;13.608;2022-08-30T03:11:27;7.82;;;2.50;;
52188;SDS011;38162;45.926;13.608;2022-08-30T03:13:53;6.35;;;2.50;;
52188;SDS011;38162;45.926;13.608;2022-08-30T03:16:18;5.25;;;2.30;;
52188;SDS011;38162;45.926;13.608;2022-08-30T03:18:45;3.58;;;2.67;;
52188;SDS011;38162;45.926;13.608;2022-08-30T03:21:12;5.28;;;2.45;;
52188;SDS011;38162;45.926;13.608;2022-08-30T03:23:39;4.40;;;2.38;;
52188;SDS011;38162;45.926;13.608;2022-08-30T03:26:08;2.88;;;2.40;;
52188;SDS011;38162;45.926;13.608;2022-08-30T03:28:36;8.27;;;2.30;;
52188;SDS011;38162;45.926;13.608;2022-08-30T03:31:02;5.15;;;2.40;;
52188;SDS011;38162;45.926;13.608;2022-08-30T03:33:28;2.85;;;2.10;;
52188;SDS011;38162;45.926;13.608;2022-08-30T03:35:54;4.28;;;2.50;;
52188;SDS011;38162;45.926;13.608;2022-08-30T03:38:20;7.03;;;2.55;;
52188;SDS011;38162;45.926;13.608;2022-08-30T03:40:45;7.43;;;2.50;;
52188;SDS011;38162;45.926;13.608;2022-08-30T03:43:12;6.78;;;3.08;;
52188;SDS011;38162;45.926;13.608;2022-08-30T03:45:38;7.22;;;2.20;;
52188;SDS011;38162;45.926;13.608;2022-08-30T03:48:04;7.57;;;2.50;;
52188;SDS011;38162;45.926;13.608;2022-08-30T03:50:30;3.50;;;2.15;;
52188;SDS011;38162;45.926;13.608;2022-08-30T03:52:56;3.50;;;2.33;;
52188;SDS011;38162;45.926;13.608;2022-08-30T03:55:25;3.97;;;2.50;;
52188;SDS011;38162;45.926;13.608;2022-08-30T03:57:53;7.88;;;2.50;;
52188;SDS011;38162;45.926;13.608;2022-08-30T04:00:19;5.10;;;2.70;;
52188;SDS011;38162;45.926;13.608;2022-08-30T04:02:44;8.98;;;2.97;;
52188;SDS011;38162;45.926;13.608;2022-08-30T04:05:10;5.20;;;2.50;;
52188;SDS011;38162;45.926;13.608;2022-08-30T04:07:36;5.38;;;2.55;;
52188;SDS011;38162;45.926;13.608;2022-08-30T04:10:06;5.93;;;2.88;;
52188;SDS011;38162;45.926;13.608;2022-08-30T04:12:33;5.80;;;2.60;;
52188;SDS011;38162;45.926;13.608;2022-08-30T04:14:59;9.52;;;2.85;;
52188;SDS011;38162;45.926;13.608;2022-08-30T04:17:25;5.03;;;2.40;;
52188;SDS011;38162;45.926;13.608;2022-08-30T04:19:51;6.68;;;2.67;;
52188;SDS011;38162;45.926;13.608;2022-08-30T04:22:17;3.63;;;2.40;;
52188;SDS011;38162;45.926;13.608;2022-08-30T04:24:43;4.30;;;2.33;;
52188;SDS011;38162;45.926;13.608;2022-08-30T04:27:08;4.10;;;2.28;;
52188;SDS011;38162;45.926;13.608;2022-08-30T04:29:34;8.00;;;2.70;;
52188;SDS011;38162;45.926;13.608;2022-08-30T04:32:00;8.18;;;2.80;;
52188;SDS011;38162;45.926;13.608;2022-08-30T04:34:27;9.43;;;2.40;;
52188;SDS011;38162;45.926;13.608;2022-08-30T04:36:52;6.25;;;2.60;;
52188;SDS011;38162;45.926;13.608;2022-08-30T04:39:18;7.20;;;2.80;;
52188;SDS011;38162;45.926;13.608;2022-08-30T04:41:44;5.10;;;2.28;;
52188;SDS011;38162;45.926;13.608;2022-08-30T04:44:09;9.38;;;3.30;;
52188;SDS011;38162;45.926;13.608;2022-08-30T04:46:35;10.60;;;2.83;;
52188;SDS011;38162;45.926;13.608;2022-08-30T04:49:02;4.65;;;2.88;;
52188;SDS011;38162;45.926;13.608;2022-08-30T04:51:29;11.30;;;2.53;;
52188;SDS011;38162;45.926;13.608;2022-08-30T04:53:54;6.15;;;3.20;;
52188;SDS011;38162;45.926;13.608;2022-08-30T04:56:21;6.45;;;2.67;;
52188;SDS011;38162;45.926;13.608;2022-08-30T04:58:49;7.53;;;2.70;;
52188;SDS011;38162;45.926;13.608;2022-08-30T05:01:17;4.28;;;3.05;;
52188;SDS011;38162;45.926;13.608;2022-08-30T05:03:48;15.43;;;3.50;;
52188;SDS011;38162;45.926;13.608;2022-08-30T05:06:15;10.18;;;3.60;;
52188;SDS011;38162;45.926;13.608;2022-08-30T05:08:41;8.85;;;3.45;;
52188;SDS011;38162;45.926;13.608;2022-08-30T05:11:07;5.43;;;3.42;;
52188;SDS011;38162;45.926;13.608;2022-08-30T05:13:34;5.68;;;2.85;;
52188;SDS011;38162;45.926;13.608;2022-08-30T05:16:01;8.63;;;3.55;;
52188;SDS011;38162;45.926;13.608;2022-08-30T05:18:28;10.13;;;3.15;;
52188;SDS011;38162;45.926;13.608;2022-08-30T05:21:04;13.23;;;3.47;;
52188;SDS011;38162;45.926;13.608;2022-08-30T05:23:32;14.02;;;3.15;;
52188;SDS011;38162;45.926;13.608;2022-08-30T05:26:02;8.45;;;2.95;;
52188;SDS011;38162;45.926;13.608;2022-08-30T05:28:33;6.95;;;3.25;;
52188;SDS011;38162;45.926;13.608;2022-08-30T05:31:00;6.25;;;2.83;;
52188;SDS011;38162;45.926;13.608;2022-08-30T05:33:26;14.95;;;2.92;;
52188;SDS011;38162;45.926;13.608;2022-08-30T05:35:53;10.82;;;3.30;;
52188;SDS011;38162;45.926;13.608;2022-08-30T05:38:18;5.88;;;3.08;;
52188;SDS011;38162;45.926;13.608;2022-08-30T05:40:44;5.40;;;2.50;;
52188;SDS011;38162;45.926;13.608;2022-08-30T05:43:10;5.50;;;2.92;;
52188;SDS011;38162;45.926;13.608;2022-08-30T05:45:38;10.38;;;2.78;;
52188;SDS011;38162;45.926;13.608;2022-08-30T05:48:04;9.50;;;2.50;;
52188;SDS011;38162;45.926;13.608;2022-08-30T05:50:30;7.38;;;2.70;;
52188;SDS011;38162;45.926;13.608;2022-08-30T05:52:56;5.68;;;2.83;;
52188;SDS011;38162;45.926;13.608;2022-08-30T05:55:22;8.38;;;2.80;;
52188;SDS011;38162;45.926;13.608;2022-08-30T05:57:47;6.47;;;2.50;;
52188;SDS011;38162;45.926;13.608;2022-08-30T06:00:14;5.75;;;2.40;;
52188;SDS011;38162;45.926;13.608;2022-08-30T06:02:42;8.25;;;2.47;;
52188;SDS011;38162;45.926;13.608;2022-08-30T06:05:09;7.88;;;2.40;;
52188;SDS011;38162;45.926;13.608;2022-08-30T06:07:35;8.70;;;2.47;;
52188;SDS011;38162;45.926;13.608;2022-08-30T06:10:01;4.18;;;2.20;;
52188;SDS011;38162;45.926;13.608;2022-08-30T06:12:28;5.72;;;2.45;;
52188;SDS011;38162;45.926;13.608;2022-08-30T06:14:54;8.55;;;2.38;;
52188;SDS011;38162;45.926;13.608;2022-08-30T06:17:20;6.18;;;2.63;;
52188;SDS011;38162;45.926;13.608;2022-08-30T06:19:46;5.65;;;2.10;;
52188;SDS011;38162;45.926;13.608;2022-08-30T06:22:12;4.95;;;2.33;;
52188;SDS011;38162;45.926;13.608;2022-08-30T06:24:38;4.47;;;2.63;;
52188;SDS011;38162;45.926;13.608;2022-08-30T06:27:04;6.70;;;2.10;;
52188;SDS011;38162;45.926;13.608;2022-08-30T06:29:29;6.75;;;2.10;;
52188;SDS011;38162;45.926;13.608;2022-08-30T06:31:56;8.50;;;2.20;;
52188;SDS011;38162;45.926;13.608;2022-08-30T06:34:22;5.43;;;2.47;;
52188;SDS011;38162;45.926;13.608;2022-08-30T06:36:47;6.40;;;2.95;;
52188;SDS011;38162;45.926;13.608;2022-08-30T06:39:13;6.07;;;2.17;;
52188;SDS011;38162;45.926;13.608;2022-08-30T06:41:39;4.05;;;2.20;;
52188;SDS011;38162;45.926;13.608;2022-08-30T06:44:05;8.38;;;2.17;;
52188;SDS011;38162;45.926;13.608;2022-08-30T06:46:33;3.72;;;2.20;;
52188;SDS011;38162;45.926;13.608;2022-08-30T06:49:00;3.88;;;1.70;;
52188;SDS011;38162;45.926;13.608;2022-08-30T06:51:31;5.07;;;2.20;;
52188;SDS011;38162;45.926;13.608;2022-08-30T06:54:00;6.57;;;2.10;;
52188;SDS011;38162;45.926;13.608;2022-08-30T06:56:27;6.70;;;2.80;;
52188;SDS011;38162;45.926;13.608;2022-08-30T06:58:53;5.15;;;2.05;;
52188;SDS011;38162;45.926;13.608;2022-08-30T07:01:20;4.88;;;2.00;;
52188;SDS011;38162;45.926;13.608;2022-08-30T07:03:47;2.92;;;2.03;;
52188;SDS011;38162;45.926;13.608;2022-08-30T07:06:14;4.50;;;1.85;;
52188;SDS011;38162;45.926;13.608;2022-08-30T07:08:39;5.40;;;1.90;;
52188;SDS011;38162;45.926;13.608;2022-08-30T07:11:06;6.20;;;2.42;;
52188;SDS011;38162;45.926;13.608;2022-08-30T07:13:33;7.30;;;2.22;;
52188;SDS011;38162;45.926;13.608;2022-08-30T07:15:59;2.28;;;1.63;;
52188;SDS011;38162;45.926;13.608;2022-08-30T07:18:25;4.80;;;2.05;;
52188;SDS011;38162;45.926;13.608;2022-08-30T07:21:13;2.83;;;2.00;;
52188;SDS011;38162;45.926;13.608;2022-08-30T07:23:41;4.28;;;1.90;;
52188;SDS011;38162;45.926;13.608;2022-08-30T07:26:08;8.95;;;1.95;;
52188;SDS011;38162;45.926;13.608;2022-08-30T07:28:36;3.60;;;2.00;;
52188;SDS011;38162;45.926;13.608;2022-08-30T07:31:03;5.43;;;2.10;;
52188;SDS011;38162;45.926;13.608;2022-08-30T07:33:29;2.67;;;1.80;;
52188;SDS011;38162;45.926;13.608;2022-08-30T07:35:55;10.73;;;1.98;;
52188;SDS011;38162;45.926;13.608;2022-08-30T07:38:22;11.73;;;2.10;;
52188;SDS011;38162;45.926;13.608;2022-08-30T07:40:48;3.80;;;2.13;;
52188;SDS011;38162;45.926;13.608;2022-08-30T07:43:14;5.32;;;1.83;;
52188;SDS011;38162;45.926;13.608;2022-08-30T07:45:39;1.90;;;1.80;;
52188;SDS011;38162;45.926;13.608;2022-08-30T07:48:05;5.22;;;2.10;;
52188;SDS011;38162;45.926;13.608;2022-08-30T07:50:31;3.50;;;1.90;;
52188;SDS011;38162;45.926;13.608;2022-08-30T07:52:57;4.47;;;1.92;;
52188;SDS011;38162;45.926;13.608;2022-08-30T07:55:23;2.45;;;2.05;;
52188;SDS011;38162;45.926;13.608;2022-08-30T07:57:49;5.75;;;2.30;;
52188;SDS011;38162;45.926;13.608;2022-08-30T08:00:15;4.88;;;1.90;;
52188;SDS011;38162;45.926;13.608;2022-08-30T08:02:40;4.15;;;2.22;;
52188;SDS011;38162;45.926;13.608;2022-08-30T08:05:07;6.00;;;2.13;;
52188;SDS011;38162;45.926;13.608;2022-08-30T08:07:34;4.85;;;2.20;;
52188;SDS011;38162;45.926;13.608;2022-08-30T08:10:00;2.35;;;1.80;;
52188;SDS011;38162;45.926;13.608;2022-08-30T08:12:27;3.67;;;1.92;;
52188;SDS011;38162;45.926;13.608;2022-08-30T08:14:53;2.10;;;1.80;;
52188;SDS011;38162;45.926;13.608;2022-08-30T08:17:18;4.25;;;1.90;;
52188;SDS011;38162;45.926;13.608;2022-08-30T08:19:44;7.80;;;2.22;;
52188;SDS011;38162;45.926;13.608;2022-08-30T08:22:10;2.90;;;1.92;;
52188;SDS011;38162;45.926;13.608;2022-08-30T08:24:35;3.72;;;1.85;;
52188;SDS011;38162;45.926;13.608;2022-08-30T08:27:01;6.82;;;1.77;;
52188;SDS011;38162;45.926;13.608;2022-08-30T08:29:27;3.47;;;2.10;;
52188;SDS011;38162;45.926;13.608;2022-08-30T08:31:53;5.47;;;1.75;;
52188;SDS011;38162;45.926;13.608;2022-08-30T08:34:19;2.78;;;2.17;;
52188;SDS011;38162;45.926;13.608;2022-08-30T08:36:47;7.72;;;2.00;;
52188;SDS011;38162;45.926;13.608;2022-08-30T08:39:14;4.35;;;2.03;;
52188;SDS011;38162;45.926;13.608;2022-08-30T08:41:45;4.43;;;1.75;;
52188;SDS011;38162;45.926;13.608;2022-08-30T08:47:12;2.95;;;1.80;;
52188;SDS011;38162;45.926;13.608;2022-08-30T08:49:49;2.78;;;1.90;;
52188;SDS011;38162;45.926;13.608;2022-08-30T08:52:19;2.90;;;1.90;;
52188;SDS011;38162;45.926;13.608;2022-08-30T08:55:13;2.13;;;1.73;;
52188;SDS011;38162;45.926;13.608;2022-08-30T08:57:43;5.93;;;1.73;;
52188;SDS011;38162;45.926;13.608;2022-08-30T09:00:10;3.92;;;1.77;;
52188;SDS011;38162;45.926;13.608;2022-08-30T09:02:43;2.78;;;1.60;;
52188;SDS011;38162;45.926;13.608;2022-08-30T09:05:12;6.13;;;1.77;;
52188;SDS011;38162;45.926;13.608;2022-08-30T09:07:42;3.83;;;1.85;;
52188;SDS011;38162;45.926;13.608;2022-08-30T09:10:12;3.97;;;2.00;;
52188;SDS011;38162;45.926;13.608;2022-08-30T09:12:38;2.25;;;1.50;;
52188;SDS011;38162;45.926;13.608;2022-08-30T09:15:14;4.10;;;1.90;;
52188;SDS011;38162;45.926;13.608;2022-08-30T09:20:22;1.85;;;1.58;;
52188;SDS011;38162;45.926;13.608;2022-08-30T09:25:56;5.03;;;1.80;;
52188;SDS011;38162;45.926;13.608;2022-08-30T09:28:27;4.75;;;1.70;;
52188;SDS011;38162;45.926;13.608;2022-08-30T09:33:25;3.42;;;1.40;;
52188;SDS011;38162;45.926;13.608;2022-08-30T09:35:51;2.10;;;1.40;;
52188;SDS011;38162;45.926;13.608;2022-08-30T09:38:25;5.00;;;1.40;;
52188;SDS011;38162;45.926;13.608;2022-08-30T09:40:55;3.90;;;1.40;;
52188;SDS011;38162;45.926;13.608;2022-08-30T09:43:24;2.35;;;1.20;;
52188;SDS011;38162;45.926;13.608;2022-08-30T10:01:51;2.05;;;1.40;;
52188;SDS011;38162;45.926;13.608;2022-08-30T10:07:25;2.67;;;1.58;;
52188;SDS011;38162;45.926;13.608;2022-08-30T10:23:17;4.03;;;1.48;;
52188;SDS011;38162;45.926;13.608;2022-08-30T10:26:41;2.97;;;1.60;;
52188;SDS011;38162;45.926;13.608;2022-08-30T10:29:00;2.33;;;1.63;;
52188;SDS011;38162;45.926;13.608;2022-08-30T10:31:47;7.45;;;1.50;;
52188;SDS011;38162;45.926;13.608;2022-08-30T10:37:00;2.50;;;1.40;;
52188;SDS011;38162;45.926;13.608;2022-08-30T10:39:45;2.78;;;1.50;;
52188;SDS011;38162;45.926;13.608;2022-08-30T10:42:17;2.08;;;1.38;;
52188;SDS011;38162;45.926;13.608;2022-08-30T10:44:55;1.60;;;1.40;;
52188;SDS011;38162;45.926;13.608;2022-08-30T10:50:03;2.08;;;1.58;;
52188;SDS011;38162;45.926;13.608;2022-08-30T10:55:44;2.92;;;1.23;;
52188;SDS011;38162;45.926;13.608;2022-08-30T10:58:15;2.83;;;1.58;;
52188;SDS011;38162;45.926;13.608;2022-08-30T11:15:24;2.00;;;1.40;;
52188;SDS011;38162;45.926;13.608;2022-08-30T11:21:31;2.50;;;1.50;;
52188;SDS011;38162;45.926;13.608;2022-08-30T11:23:39;3.15;;;1.55;;
52188;SDS011;38162;45.926;13.608;2022-08-30T11:26:06;2.75;;;1.70;;
52188;SDS011;38162;45.926;13.608;2022-08-30T11:31:03;1.70;;;1.52;;
52188;SDS011;38162;45.926;13.608;2022-08-30T11:33:46;7.80;;;1.88;;
52188;SDS011;38162;45.926;13.608;2022-08-30T11:44:33;2.97;;;1.60;;
52188;SDS011;38162;45.926;13.608;2022-08-30T11:47:00;3.58;;;1.88;;
52188;SDS011;38162;45.926;13.608;2022-08-30T11:52:42;3.65;;;1.92;;
52188;SDS011;38162;45.926;13.608;2022-08-30T11:58:51;5.03;;;2.03;;
52188;SDS011;38162;45.926;13.608;2022-08-30T12:11:58;5.00;;;2.20;;
52188;SDS011;38162;45.926;13.608;2022-08-30T12:14:45;5.88;;;1.98;;
52188;SDS011;38162;45.926;13.608;2022-08-30T12:17:30;4.60;;;2.00;;
52188;SDS011;38162;45.926;13.608;2022-08-30T12:20:29;3.85;;;1.90;;
52188;SDS011;38162;45.926;13.608;2022-08-30T12:23:14;3.10;;;1.60;;
52188;SDS011;38162;45.926;13.608;2022-08-30T12:25:41;4.75;;;2.22;;
52188;SDS011;38162;45.926;13.608;2022-08-30T12:28:20;2.50;;;1.88;;
52188;SDS011;38162;45.926;13.608;2022-08-30T12:30:49;3.15;;;2.00;;
52188;SDS011;38162;45.926;13.608;2022-08-30T12:33:22;21.10;;;2.30;;
52188;SDS011;38162;45.926;13.608;2022-08-30T12:35:52;6.07;;;2.25;;
52188;SDS011;38162;45.926;13.608;2022-08-30T12:38:19;4.18;;;2.10;;
52188;SDS011;38162;45.926;13.608;2022-08-30T12:40:49;8.05;;;2.30;;
52188;SDS011;38162;45.926;13.608;2022-08-30T12:43:22;22.92;;;2.90;;
52188;SDS011;38162;45.926;13.608;2022-08-30T12:45:57;2.72;;;2.00;;
52188;SDS011;38162;45.926;13.608;2022-08-30T12:50:57;9.48;;;2.10;;
52188;SDS011;38162;45.926;13.608;2022-08-30T12:53:32;9.77;;;2.22;;
52188;SDS011;38162;45.926;13.608;2022-08-30T12:56:08;6.50;;;2.25;;
52188;SDS011;38162;45.926;13.608;2022-08-30T12:58:49;9.53;;;1.60;;
52188;SDS011;38162;45.926;13.608;2022-08-30T13:01:30;5.60;;;1.85;;
52188;SDS011;38162;45.926;13.608;2022-08-30T13:04:18;15.93;;;2.10;;
52188;SDS011;38162;45.926;13.608;2022-08-30T13:06:52;6.68;;;2.30;;
52188;SDS011;38162;45.926;13.608;2022-08-30T13:09:30;6.53;;;2.05;;
52188;SDS011;38162;45.926;13.608;2022-08-30T13:12:05;16.75;;;2.80;;
52188;SDS011;38162;45.926;13.608;2022-08-30T13:14:44;8.07;;;2.10;;
52188;SDS011;38162;45.926;13.608;2022-08-30T13:17:23;10.10;;;2.42;;
52188;SDS011;38162;45.926;13.608;2022-08-30T13:23:02;11.13;;;2.05;;
52188;SDS011;38162;45.926;13.608;2022-08-30T13:25:30;4.93;;;2.38;;
52188;SDS011;38162;45.926;13.608;2022-08-30T13:27:56;3.22;;;1.95;;
52188;SDS011;38162;45.926;13.608;2022-08-30T13:30:23;3.88;;;1.90;;
52188;SDS011;38162;45.926;13.608;2022-08-30T13:32:49;13.70;;;2.33;;
52188;SDS011;38162;45.926;13.608;2022-08-30T13:35:15;12.88;;;2.38;;
52188;SDS011;38162;45.926;13.608;2022-08-30T13:37:41;8.85;;;2.17;;
52188;SDS011;38162;45.926;13.608;2022-08-30T13:40:08;4.32;;;2.00;;
52188;SDS011;38162;45.926;13.608;2022-08-30T13:42:35;5.60;;;2.20;;
52188;SDS011;38162;45.926;13.608;2022-08-30T13:45:01;5.35;;;2.00;;
52188;SDS011;38162;45.926;13.608;2022-08-30T13:47:26;2.35;;;1.90;;
52188;SDS011;38162;45.926;13.608;2022-08-30T13:49:53;6.43;;;2.13;;
52188;SDS011;38162;45.926;13.608;2022-08-30T13:52:20;7.50;;;2.00;;
52188;SDS011;38162;45.926;13.608;2022-08-30T13:54:51;3.85;;;2.10;;
52188;SDS011;38162;45.926;13.608;2022-08-30T13:59:45;7.47;;;3.10;;
52188;SDS011;38162;45.926;13.608;2022-08-30T14:02:11;7.97;;;2.28;;
52188;SDS011;38162;45.926;13.608;2022-08-30T14:04:36;7.88;;;2.33;;
52188;SDS011;38162;45.926;13.608;2022-08-30T14:07:02;2.83;;;2.30;;
52188;SDS011;38162;45.926;13.608;2022-08-30T14:09:28;4.47;;;2.15;;
52188;SDS011;38162;45.926;13.608;2022-08-30T14:11:54;2.15;;;1.77;;
52188;SDS011;38162;45.926;13.608;2022-08-30T14:14:20;5.05;;;2.10;;
52188;SDS011;38162;45.926;13.608;2022-08-30T14:16:46;7.80;;;2.42;;
52188;SDS011;38162;45.926;13.608;2022-08-30T14:19:13;7.75;;;2.38;;
52188;SDS011;38162;45.926;13.608;2022-08-30T14:21:40;3.38;;;1.80;;
52188;SDS011;38162;45.926;13.608;2022-08-30T14:24:06;5.07;;;2.20;;
52188;SDS011;38162;45.926;13.608;2022-08-30T14:26:34;3.30;;;2.00;;
52188;SDS011;38162;45.926;13.608;2022-08-30T14:29:10;4.82;;;2.53;;
52188;SDS011;38162;45.926;13.608;2022-08-30T14:31:37;3.28;;;2.10;;
52188;SDS011;38162;45.926;13.608;2022-08-30T14:34:04;7.15;;;2.28;;
52188;SDS011;38162;45.926;13.608;2022-08-30T14:36:31;7.60;;;2.10;;
52188;SDS011;38162;45.926;13.608;2022-08-30T14:38:57;4.00;;;2.25;;
52188;SDS011;38162;45.926;13.608;2022-08-30T14:41:23;2.88;;;2.00;;
52188;SDS011;38162;45.926;13.608;2022-08-30T14:43:49;4.25;;;2.22;;
52188;SDS011;38162;45.926;13.608;2022-08-30T14:46:15;4.15;;;2.40;;
52188;SDS011;38162;45.926;13.608;2022-08-30T14:48:41;5.88;;;2.20;;
52188;SDS011;38162;45.926;13.608;2022-08-30T14:51:14;5.93;;;2.35;;
52188;SDS011;38162;45.926;13.608;2022-08-30T14:53:41;3.42;;;1.77;;
52188;SDS011;38162;45.926;13.608;2022-08-30T14:56:08;4.07;;;2.15;;
52188;SDS011;38162;45.926;13.608;2022-08-30T14:58:34;6.10;;;2.00;;
52188;SDS011;38162;45.926;13.608;2022-08-30T15:01:00;3.67;;;2.13;;
52188;SDS011;38162;45.926;13.608;2022-08-30T15:03:26;4.72;;;1.83;;
52188;SDS011;38162;45.926;13.608;2022-08-30T15:05:52;5.43;;;2.03;;
52188;SDS011;38162;45.926;13.608;2022-08-30T15:08:17;4.28;;;1.92;;
52188;SDS011;38162;45.926;13.608;2022-08-30T15:10:43;7.43;;;2.17;;
52188;SDS011;38162;45.926;13.608;2022-08-30T15:13:09;3.40;;;2.00;;
52188;SDS011;38162;45.926;13.608;2022-08-30T15:15:35;4.93;;;2.28;;
52188;SDS011;38162;45.926;13.608;2022-08-30T15:18:01;2.65;;;1.90;;
52188;SDS011;38162;45.926;13.608;2022-08-30T15:20:27;2.42;;;2.10;;
52188;SDS011;38162;45.926;13.608;2022-08-30T15:22:53;4.20;;;2.05;;
52188;SDS011;38162;45.926;13.608;2022-08-30T15:25:18;6.18;;;2.30;;
52188;SDS011;38162;45.926;13.608;2022-08-30T15:27:44;9.75;;;2.45;;
52188;SDS011;38162;45.926;13.608;2022-08-30T15:30:10;5.00;;;1.80;;
52188;SDS011;38162;45.926;13.608;2022-08-30T15:32:37;13.88;;;3.13;;
52188;SDS011;38162;45.926;13.608;2022-08-30T15:35:03;6.68;;;2.63;;
52188;SDS011;38162;45.926;13.608;2022-08-30T15:37:29;3.47;;;2.05;;
52188;SDS011;38162;45.926;13.608;2022-08-30T15:39:55;4.38;;;1.90;;
52188;SDS011;38162;45.926;13.608;2022-08-30T15:42:20;3.28;;;1.63;;
52188;SDS011;38162;45.926;13.608;2022-08-30T15:44:50;3.70;;;2.00;;
52188;SDS011;38162;45.926;13.608;2022-08-30T15:47:20;16.00;;;2.15;;
52188;SDS011;38162;45.926;13.608;2022-08-30T15:50:00;2.70;;;1.57;;
52188;SDS011;38162;45.926;13.608;2022-08-30T15:52:28;2.37;;;1.67;;
52188;SDS011;38162;45.926;13.608;2022-08-30T15:54:54;5.40;;;1.40;;
52188;SDS011;38162;45.926;13.608;2022-08-30T15:57:20;4.95;;;1.50;;
52188;SDS011;38162;45.926;13.608;2022-08-30T15:59:46;3.47;;;1.50;;
52188;SDS011;38162;45.926;13.608;2022-08-30T16:02:12;4.20;;;1.50;;
52188;SDS011;38162;45.926;13.608;2022-08-30T16:04:38;7.28;;;1.60;;
52188;SDS011;38162;45.926;13.608;2022-08-30T16:07:04;5.13;;;1.60;;
52188;SDS011;38162;45.926;13.608;2022-08-30T16:09:30;4.85;;;1.55;;
52188;SDS011;38162;45.926;13.608;2022-08-30T16:11:57;8.38;;;1.80;;
52188;SDS011;38162;45.926;13.608;2022-08-30T16:14:23;2.47;;;1.60;;
52188;SDS011;38162;45.926;13.608;2022-08-30T16:16:49;6.30;;;1.95;;
52188;SDS011;38162;45.926;13.608;2022-08-30T16:19:15;6.80;;;1.60;;
52188;SDS011;38162;45.926;13.608;2022-08-30T16:21:41;2.70;;;1.90;;
52188;SDS011;38162;45.926;13.608;2022-08-30T16:24:08;2.15;;;1.70;;
52188;SDS011;38162;45.926;13.608;2022-08-30T16:26:35;4.03;;;1.65;;